Home   Weather   USA   DeKalb   Past weeks
Flag for USA

Past Weather in DeKalb, Illinois, USA — Yesterday and Last 2 Weeks

Currently: 87 °F. Scattered clouds. (Weather station: De Kalb Taylor Municipal Airport, USA). See more current weather

Past Weather in DeKalb — Graph

°F

DeKalb Temperature Yesterday

Maximum temperature yesterday: 77 °F (at 2:15 pm)
Minimum temperature yesterday: 46 °F (at 4:35 am)
Average temperature yesterday: 63 °F

High & Low Weather Summary for the Past Weeks

 TemperatureHumidityPressure
High90 °F (Jun 12, 4:15 pm)95% (Jun 1, 1:55 pm)30.27 "Hg (Jun 1, 1:55 pm)
Low46 °F (May 30, 5:15 am)16% (May 30, 5:15 pm)29.57 "Hg (Jun 5, 3:35 am)
Average66 °F57%29.94 "Hg
* Reported May 28 4:15 pm — Jun 12 4:55 pm, DeKalb. Weather by CustomWeather, © 2024

Note: Actual official high and low records may vary slightly from our data, if they occured in-between our weather recording intervals... More about our weather records

DeKalb Weather History for the Previous 24 Hours

Scroll right to see more
 ConditionsComfort  
Time TempWeatherWind HumidityBarometerVisibility
4:55 pm
Wed, Jun 12
87 °FScattered clouds.10 mph26%29.88 "Hg10 mi
4:35 pm88 °FPartly sunny.9 mph25%29.89 "Hg10 mi
4:15 pm90 °FPartly sunny.16 mph24%29.89 "Hg10 mi
3:35 pm89 °FPartly sunny.15 mph24%29.89 "Hg10 mi
2:55 pm89 °FPartly sunny.13 mph24%29.90 "Hg10 mi
2:35 pm88 °FScattered clouds.10 mph24%29.91 "Hg10 mi
2:15 pm89 °FScattered clouds.9 mph22%29.91 "Hg10 mi
1:55 pm89 °FScattered clouds.8 mph23%29.91 "Hg10 mi
12:55 pm88 °FSunny.7 mph23%29.92 "Hg10 mi
12:15 pm86 °FSunny.5 mph26%29.92 "Hg10 mi
11:55 am86 °FSunny.5 mph30%29.93 "Hg10 mi
11:35 am85 °FSunny.8 mph35%29.93 "Hg7 mi
11:15 am84 °FSunny.5 mph38%29.94 "Hg10 mi
10:55 am83 °FSunny.8 mph41%29.94 "Hg10 mi
10:35 am82 °FSunny.5 mph42%29.93 "Hg10 mi
10:15 am81 °FSunny.5 mph47%29.93 "Hg10 mi
9:55 am79 °FSunny.5 mph49%29.93 "Hg10 mi
9:15 am76 °FSunny.6 mph56%29.94 "Hg10 mi
8:35 am73 °FSunny.7 mph61%29.94 "Hg10 mi
8:15 am72 °FSunny.10 mph63%29.94 "Hg10 mi
7:55 am71 °FSunny.7 mph65%29.94 "Hg10 mi
7:35 am69 °FSunny.8 mph66%29.94 "Hg10 mi
7:15 am68 °FSunny.8 mph67%29.94 "Hg10 mi
6:15 am62 °FSunny.6 mph74%29.94 "Hg10 mi
5:55 am60 °FSunny.7 mph76%29.94 "Hg10 mi
5:35 am60 °FSunny.6 mph76%29.93 "Hg10 mi
5:15 am61 °FClear.7 mph72%29.93 "Hg10 mi
4:55 am62 °FClear.8 mph69%29.92 "Hg10 mi
4:35 am63 °FClear.9 mph66%29.92 "Hg10 mi
4:15 am63 °FClear.10 mph65%29.92 "Hg10 mi
3:55 am63 °FClear.10 mph64%29.91 "Hg10 mi
3:15 am64 °FClear.9 mph62%29.91 "Hg10 mi
2:35 am62 °FPassing clouds.9 mph62%29.91 "Hg10 mi
2:15 am63 °FClear.10 mph60%29.91 "Hg10 mi
1:55 am62 °FClear.9 mph60%29.91 "Hg10 mi
1:35 am61 °FClear.9 mph60%29.92 "Hg10 mi
1:15 am61 °FClear.9 mph59%29.92 "Hg10 mi
12:55 am60 °FClear.9 mph58%29.92 "Hg10 mi
12:35 am61 °FClear.9 mph56%29.92 "Hg10 mi
12:15 am62 °FClear.10 mph54%29.92 "Hg10 mi
11:55 pm
Tue, Jun 11
62 °FClear.10 mph53%29.92 "Hg10 mi
11:35 pm62 °FClear.9 mph53%29.92 "Hg10 mi
10:55 pm62 °FClear.8 mph53%29.92 "Hg10 mi
10:35 pm62 °FClear.9 mph53%29.92 "Hg10 mi
10:15 pm63 °FClear.8 mph51%29.92 "Hg10 mi
9:55 pm64 °FClear.9 mph49%29.92 "Hg10 mi
9:15 pm65 °FClear.8 mph44%29.92 "Hg10 mi
8:55 pm68 °FPassing clouds.8 mph39%29.92 "Hg10 mi
8:15 pm72 °FOvercast.9 mph32%29.92 "Hg10 mi
7:55 pm72 °FMore clouds than sun.9 mph33%29.93 "Hg10 mi
7:35 pm73 °FPartly sunny.10 mph29%29.93 "Hg10 mi
6:55 pm74 °FOvercast.12 mph27%29.92 "Hg10 mi
6:35 pm74 °FMostly cloudy.12 mph25%29.92 "Hg10 mi
6:15 pm74 °FOvercast.12 mph24%29.92 "Hg10 mi
Weather by CustomWeather, © 2024

See weather overview